Time;durP1;ratioP1;P1;durP2;ratioP2;P2;SDS_P1;SDS_P2;PMS_P1;PMS_P2;Temp;Humidity;BMP_temperature;BMP_pressure;BME280_temperature;BME280_humidity;BME280_pressure;Samples;Min_cycle;Max_cycle;Signal;HPM_P1;HPM_P2
2022/03/28 00:02:16;;;;;;;15.00;9.57;;;;;;;10.80;53.40;95858.41;5037384;28;20441;-77
2022/03/28 00:04:43;;;;;;;15.50;10.57;;;;;;;10.79;53.28;95857.56;5037524;28;20579;-77
2022/03/28 00:07:09;;;;;;;17.50;11.10;;;;;;;10.83;52.79;95858.19;5037379;28;20447;-77
2022/03/28 00:09:36;;;;;;;15.80;10.47;;;;;;;10.84;52.65;95857.22;5037195;28;20446;-77
2022/03/28 00:12:04;;;;;;;14.97;10.37;;;;;;;10.88;52.49;95853.44;5018526;28;20598;-77
2022/03/28 00:14:32;;;;;;;11.37;9.43;;;;;;;10.84;52.86;95857.22;5037547;28;20464;-77
2022/03/28 00:16:59;;;;;;;13.47;9.40;;;;;;;10.80;52.69;95850.50;5037246;28;20533;-77
2022/03/28 00:19:26;;;;;;;19.83;11.43;;;;;;;10.86;53.04;95847.44;5036976;28;20933;-77
2022/03/28 00:21:53;;;;;;;16.07;10.37;;;;;;;10.85;52.70;95848.41;5037364;28;20809;-78
2022/03/28 00:24:20;;;;;;;17.30;10.47;;;;;;;10.82;52.51;95841.59;5036769;28;20443;-79
2022/03/28 00:26:47;;;;;;;15.00;9.67;;;;;;;10.73;53.68;95830.91;5036478;28;20549;-78
2022/03/28 00:29:13;;;;;;;13.60;9.87;;;;;;;10.73;53.77;95837.00;5036421;28;20446;-78
2022/03/28 00:31:42;;;;;;;13.73;9.77;;;;;;;10.71;52.96;95835.41;5036635;28;20489;-77
2022/03/28 00:34:09;;;;;;;14.93;10.13;;;;;;;10.69;54.06;95837.28;5036775;28;20442;-77
2022/03/28 00:36:35;;;;;;;17.07;10.10;;;;;;;10.66;53.38;95834.88;5036678;28;20806;-78
2022/03/28 00:39:02;;;;;;;16.33;10.40;;;;;;;10.65;53.81;95826.16;5036310;28;20445;-77
2022/03/28 00:41:29;;;;;;;17.13;9.90;;;;;;;10.69;53.96;95835.50;5036820;28;20431;-77
2022/03/28 00:43:58;;;;;;;19.17;11.70;;;;;;;10.67;54.09;95840.00;5036603;28;20445;-78
2022/03/28 00:46:25;;;;;;;14.30;11.20;;;;;;;10.71;53.58;95835.41;5036421;28;20446;-78
2022/03/28 00:48:54;;;;;;;17.33;11.57;;;;;;;10.69;53.49;95827.63;5034659;28;20430;-78
2022/03/28 00:51:23;;;;;;;15.47;10.47;;;;;;;10.76;53.01;95842.03;5037022;28;20481;-78
2022/03/28 00:53:51;;;;;;;15.97;10.67;;;;;;;10.76;52.80;95830.69;5036594;28;20925;-78
2022/03/28 00:56:18;;;;;;;13.50;10.70;;;;;;;10.77;53.49;95827.09;5037016;28;20438;-78
2022/03/28 00:58:45;;;;;;;16.47;10.93;;;;;;;10.73;53.33;95828.28;5036450;28;20450;-77
2022/03/28 01:01:12;;;;;;;20.00;11.80;;;;;;;10.65;53.63;95822.69;5018093;28;20457;-77
2022/03/28 01:03:39;;;;;;;21.97;12.00;;;;;;;10.58;53.58;95822.28;5036126;28;20891;-77
2022/03/28 01:06:08;;;;;;;18.73;10.30;;;;;;;10.52;53.89;95820.94;5036318;28;20481;-77
2022/03/28 01:08:35;;;;;;;16.20;9.90;;;;;;;10.38;54.17;95818.44;5035476;28;20442;-77
2022/03/28 01:11:05;;;;;;;20.73;10.77;;;;;;;10.28;54.19;95822.63;5036068;28;20474;-77
2022/03/28 01:13:33;;;;;;;12.10;10.47;;;;;;;10.19;54.95;95821.47;5036090;28;20443;-78
2022/03/28 01:16:00;;;;;;;16.90;9.13;;;;;;;10.13;55.03;95818.44;5035993;28;20451;-78
2022/03/28 01:18:26;;;;;;;17.07;10.00;;;;;;;10.06;55.50;95825.00;5036096;28;20447;-78
2022/03/28 01:20:56;;;;;;;12.80;9.60;;;;;;;10.02;55.76;95819.13;5036351;28;20802;-77
2022/03/28 01:23:23;;;;;;;13.73;10.57;;;;;;;9.94;55.36;95817.03;5033842;28;20449;-77
2022/03/28 01:25:52;;;;;;;14.67;10.63;;;;;;;9.99;55.38;95818.50;5035962;28;20934;-77
2022/03/28 01:28:20;;;;;;;14.30;9.20;;;;;;;10.03;55.39;95826.06;5016864;28;20500;-77
2022/03/28 01:30:48;;;;;;;17.47;10.60;;;;;;;10.09;54.96;95824.78;5035706;28;20442;-77
2022/03/28 01:33:15;;;;;;;11.50;9.63;;;;;;;10.10;54.91;95816.81;5036114;28;20446;-77
2022/03/28 01:35:43;;;;;;;17.27;9.90;;;;;;;10.06;55.18;95810.13;5035197;28;20462;-77
2022/03/28 01:38:14;;;;;;;18.87;10.53;;;;;;;10.07;55.31;95808.31;5035747;28;20456;-77
2022/03/28 01:40:43;;;;;;;12.10;9.67;;;;;;;10.10;55.39;95814.19;5035466;28;20470;-77
2022/03/28 01:43:10;;;;;;;15.73;10.30;;;;;;;10.14;54.83;95817.47;5035678;28;20454;-77
2022/03/28 01:45:37;;;;;;;13.60;10.80;;;;;;;10.15;54.82;95813.91;5035547;28;20457;-78
2022/03/28 01:48:05;;;;;;;18.00;10.30;;;;;;;10.13;55.06;95805.31;5035080;28;20945;-77
2022/03/28 01:50:32;;;;;;;15.13;9.63;;;;;;;10.06;55.44;95804.03;5016798;28;20430;-76
2022/03/28 01:52:59;;;;;;;14.70;10.17;;;;;;;9.97;55.54;95809.91;5033520;28;20489;-77
2022/03/28 01:55:27;;;;;;;13.10;9.33;;;;;;;9.94;56.16;95809.19;5035209;28;20446;-77
2022/03/28 01:57:54;;;;;;;15.90;10.30;;;;;;;9.83;56.04;95813.44;5035282;28;20447;-76
2022/03/28 02:00:24;;;;;;;20.83;11.00;;;;;;;9.78;56.30;95818.16;5035320;28;20438;-77
2022/03/28 02:02:52;;;;;;;15.70;10.10;;;;;;;9.71;57.10;95812.50;5035274;28;20722;-77
2022/03/28 02:05:19;;;;;;;14.87;9.23;;;;;;;9.70;56.92;95813.44;5035076;28;20454;-78
2022/03/28 02:07:47;;;;;;;15.97;10.00;;;;;;;9.69;56.64;95822.25;5035047;28;20933;-77
2022/03/28 02:10:16;;;;;;;15.13;9.80;;;;;;;9.67;56.72;95813.63;5035019;28;20454;-77
2022/03/28 02:12:44;;;;;;;14.00;10.00;;;;;;;9.66;56.99;95817.22;5035183;28;20498;-77
2022/03/28 02:15:12;;;;;;;15.40;10.03;;;;;;;9.68;56.75;95815.31;5035374;28;20434;-78
2022/03/28 02:17:39;;;;;;;18.90;11.23;;;;;;;9.70;56.73;95812.59;5034643;28;20466;-77
2022/03/28 02:20:08;;;;;;;14.00;10.20;;;;;;;9.65;57.06;95815.53;5034402;28;20450;-77
2022/03/28 02:22:37;;;;;;;24.33;10.33;;;;;;;9.62;57.20;95813.13;5035133;28;20465;-77
2022/03/28 02:25:05;;;;;;;22.13;9.63;;;;;;;9.67;56.89;95818.88;5034644;28;20454;-78
2022/03/28 02:27:32;;;;;;;11.00;9.40;;;;;;;9.69;56.98;95810.91;5034856;28;20447;-77
2022/03/28 02:30:01;;;;;;;16.10;9.93;;;;;;;9.60;57.48;95813.22;5034477;28;20458;-77
2022/03/28 02:32:28;;;;;;;17.20;10.17;;;;;;;9.51;57.82;95812.97;5034357;28;21004;-78
2022/03/28 02:34:55;;;;;;;25.70;12.73;;;;;;;9.43;57.98;95810.84;5034664;28;20458;-77
2022/03/28 02:37:21;;;;;;;16.60;10.83;;;;;;;9.35;58.32;95823.63;5034832;28;20439;-78
2022/03/28 02:39:48;;;;;;;20.73;11.87;;;;;;;9.29;58.34;95819.63;5034953;28;20442;-77
2022/03/28 02:42:15;;;;;;;18.60;11.67;;;;;;;9.28;58.33;95823.19;5034518;28;20447;-77
2022/03/28 02:44:42;;;;;;;16.80;9.77;;;;;;;9.25;58.55;95820.75;5034338;28;20428;-77
2022/03/28 02:47:11;;;;;;;14.77;9.53;;;;;;;9.22;58.93;95818.31;5034621;28;20431;-77
2022/03/28 02:49:38;;;;;;;16.87;10.10;;;;;;;9.19;59.04;95823.75;5034755;28;20447;-78
2022/03/28 02:52:06;;;;;;;15.43;10.00;;;;;;;9.14;59.30;95825.00;5034530;28;20478;-77
2022/03/28 02:54:33;;;;;;;15.53;10.50;;;;;;;9.15;59.19;95822.28;4999768;28;20449;-78
2022/03/28 02:57:00;;;;;;;13.20;10.27;;;;;;;9.18;59.03;95824.69;5034331;28;20461;-78
2022/03/28 02:59:27;;;;;;;16.17;9.70;;;;;;;9.20;59.18;95832.44;5034920;28;20447;-78
2022/03/28 03:01:54;;;;;;;15.43;10.87;;;;;;;9.21;58.91;95827.13;5034236;28;20799;-78
2022/03/28 03:04:23;;;;;;;13.97;9.43;;;;;;;9.20;58.95;95825.44;5034307;28;20569;-77
2022/03/28 03:06:49;;;;;;;15.57;10.20;;;;;;;9.24;58.77;95828.69;5034163;28;20454;-78
2022/03/28 03:09:16;;;;;;;17.20;11.23;;;;;;;9.15;58.71;95822.28;5033766;28;20439;-78
2022/03/28 03:11:43;;;;;;;17.13;12.20;;;;;;;9.21;59.34;95826.28;5033953;28;20499;-78
2022/03/28 03:14:10;;;;;;;33.40;16.50;;;;;;;9.13;59.06;95837.25;5034295;28;20458;-77
2022/03/28 03:16:37;;;;;;;34.20;20.00;;;;;;;9.05;59.42;95830.81;5033874;28;20438;-77
2022/03/28 03:19:04;;;;;;;29.50;18.30;;;;;;;8.97;59.79;95831.31;5034339;28;20439;-77
2022/03/28 03:21:32;;;;;;;18.50;11.50;;;;;;;8.89;60.21;95826.56;5034017;28;20450;-78
2022/03/28 03:23:59;;;;;;;20.03;11.90;;;;;;;8.86;60.81;95829.38;5033616;28;20463;-78
2022/03/28 03:26:26;;;;;;;16.83;10.13;;;;;;;8.83;60.83;95836.56;5033483;28;20454;-77
2022/03/28 03:28:55;;;;;;;15.27;10.70;;;;;;;8.83;60.57;95836.56;5033498;28;20450;-78
2022/03/28 03:31:22;;;;;;;18.03;9.43;;;;;;;8.85;61.09;95839.94;5033564;28;20992;-78
2022/03/28 03:33:49;;;;;;;15.43;9.37;;;;;;;8.85;60.90;95834.69;5033336;28;20435;-78
2022/03/28 03:36:16;;;;;;;32.20;10.93;;;;;;;8.82;61.01;95834.91;5031559;28;20431;-77
2022/03/28 03:38:44;;;;;;;13.03;9.73;;;;;;;8.77;61.13;95839.59;5033906;28;20453;-77
2022/03/28 03:41:11;;;;;;;11.90;9.10;;;;;;;8.78;60.81;95838.63;5033674;28;20446;-78
2022/03/28 03:43:38;;;;;;;13.87;9.50;;;;;;;8.74;60.97;95838.00;5033267;28;20454;-77
2022/03/28 03:46:05;;;;;;;12.10;10.17;;;;;;;8.69;61.42;95845.31;5033437;28;20435;-78
2022/03/28 03:48:32;;;;;;;11.87;9.13;;;;;;;8.61;61.49;95845.75;5033549;28;20750;-77
2022/03/28 03:50:59;;;;;;;14.90;10.03;;;;;;;8.67;61.34;95841.91;5033298;28;20766;-77
2022/03/28 03:53:25;;;;;;;18.10;9.57;;;;;;;8.63;61.07;95840.41;5033166;28;20486;-78
2022/03/28 03:55:54;;;;;;;20.23;11.73;;;;;;;8.63;59.79;95856.97;5047624;28;20808;-78
2022/03/28 03:58:20;;;;;;;27.20;13.60;;;;;;;8.44;59.91;95856.44;5033326;28;20472;-78
2022/03/28 04:00:47;;;;;;;25.13;14.93;;;;;;;8.29;60.42;95870.38;5033165;28;20447;-79
2022/03/28 04:03:14;;;;;;;27.53;15.70;;;;;;;8.18;60.87;95870.19;5033124;28;20482;-78
2022/03/28 04:05:41;;;;;;;22.90;15.60;;;;;;;8.14;61.34;95868.69;5033236;28;20430;-78
2022/03/28 04:08:08;;;;;;;25.23;14.37;;;;;;;8.07;61.29;95858.59;5033237;28;20447;-77
2022/03/28 04:10:36;;;;;;;19.10;12.90;;;;;;;8.04;61.73;95852.69;5033493;28;20454;-78
2022/03/28 04:13:05;;;;;;;26.90;13.77;;;;;;;7.94;62.27;95857.63;5033545;28;20490;-76
2022/03/28 04:15:32;;;;;;;22.93;13.20;;;;;;;7.84;63.39;95856.50;5033292;28;20616;-77
2022/03/28 04:17:59;;;;;;;19.50;11.70;;;;;;;7.82;63.32;95858.38;5032866;28;20444;-77
2022/03/28 04:20:27;;;;;;;15.50;11.53;;;;;;;7.77;64.61;95858.63;5032920;28;20446;-77
2022/03/28 04:22:54;;;;;;;14.10;10.70;;;;;;;7.76;64.91;95856.94;5033171;28;20442;-76
2022/03/28 04:25:21;;;;;;;21.47;10.60;;;;;;;7.84;65.04;95855.66;4997553;28;20438;-78
2022/03/28 04:27:48;;;;;;;16.20;10.70;;;;;;;7.91;64.48;95870.06;5031934;28;20443;-78
2022/03/28 04:30:17;;;;;;;19.80;11.00;;;;;;;8.07;64.27;95866.44;5032538;28;20457;-78
2022/03/28 04:32:44;;;;;;;16.60;10.57;;;;;;;8.32;63.82;95872.81;5032843;28;20478;-78
2022/03/28 04:35:12;;;;;;;18.20;10.40;;;;;;;8.68;62.45;95868.00;5032539;28;20960;-79
2022/03/28 04:37:41;;;;;;;18.60;10.70;;;;;;;9.00;61.30;95866.00;5014464;28;20438;-80
2022/03/28 04:40:10;;;;;;;21.97;11.27;;;;;;;9.46;59.70;95867.44;5032981;28;20470;-78
2022/03/28 04:42:37;;;;;;;23.23;9.80;;;;;;;9.99;58.58;95856.06;5033345;28;20454;-79
2022/03/28 04:45:07;;;;;;;15.57;9.93;;;;;;;10.65;56.77;95854.19;5037177;28;20435;-78
2022/03/28 04:47:36;;;;;;;18.43;8.93;;;;;;;11.17;55.01;95851.38;5036621;28;20449;-79
2022/03/28 04:50:03;;;;;;;20.53;10.30;;;;;;;11.42;54.68;95853.06;5036345;28;20836;-78
2022/03/28 04:52:30;;;;;;;18.10;9.67;;;;;;;11.65;56.52;95846.97;5035998;28;20858;-79
2022/03/28 04:54:57;;;;;;;18.70;11.67;;;;;;;11.98;58.61;95853.31;5036198;28;20470;-78
2022/03/28 04:57:24;;;;;;;15.27;10.77;;;;;;;12.30;60.13;95851.72;5036372;28;20442;-81
2022/03/28 04:59:51;;;;;;;17.83;10.70;;;;;;;12.49;53.64;95843.28;5001715;28;20426;-81
2022/03/28 05:02:18;;;;;;;12.93;10.00;;;;;;;12.65;50.74;95840.28;5035836;28;20454;-80
2022/03/28 05:04:46;;;;;;;20.60;10.57;;;;;;;12.65;50.33;95843.75;5036137;28;20480;-81
2022/03/28 05:07:13;;;;;;;14.00;9.73;;;;;;;12.75;50.71;95846.53;5035915;28;20465;-82
2022/03/28 05:09:40;;;;;;;15.23;10.90;;;;;;;12.93;49.09;95858.22;5053913;28;20454;-81
2022/03/28 05:12:08;;;;;;;26.73;16.87;;;;;;;11.90;49.79;95861.81;5056022;28;20450;-82
2022/03/28 05:14:35;;;;;;;34.43;19.10;;;;;;;11.35;50.22;95862.34;5055807;28;20430;-82
2022/03/28 05:17:02;;;;;;;32.67;22.00;;;;;;;11.02;50.58;95874.31;5039722;28;21004;-81
2022/03/28 05:19:29;;;;;;;39.20;21.60;;;;;;;10.99;51.79;95874.53;5056031;28;20456;-81
2022/03/28 05:21:58;;;;;;;49.57;22.73;;;;;;;10.63;51.61;95877.09;5052442;28;20922;-82
2022/03/28 05:24:25;;;;;;;31.23;19.90;;;;;;;10.46;53.27;95865.16;5036071;28;20798;-79
2022/03/28 05:26:52;;;;;;;31.53;19.40;;;;;;;11.02;56.04;95868.22;5016536;28;20457;-78
2022/03/28 05:29:23;;;;;;;25.77;16.43;;;;;;;11.26;51.57;95868.25;5035455;28;20430;-79
2022/03/28 05:31:51;;;;;;;35.57;17.70;;;;;;;11.69;50.85;95873.88;5035537;28;20790;-79
2022/03/28 05:34:18;;;;;;;33.40;18.70;;;;;;;11.96;49.46;95871.84;5034982;28;20482;-78
2022/03/28 05:36:45;;;;;;;22.83;15.33;;;;;;;12.40;48.41;95872.91;5035463;28;20830;-80
2022/03/28 05:39:14;;;;;;;28.37;16.40;;;;;;;12.84;47.67;95852.84;5054784;28;20442;-79
2022/03/28 05:41:41;;;;;;;25.77;17.30;;;;;;;13.35;46.31;95857.63;5055327;28;20620;-79
2022/03/28 05:44:08;;;;;;;25.60;16.10;;;;;;;13.81;45.46;95871.38;5055170;28;20450;-79
2022/03/28 05:46:35;;;;;;;28.97;17.13;;;;;;;13.99;45.09;95860.28;5055006;28;20540;-79
2022/03/28 05:49:02;;;;;;;25.83;17.27;;;;;;;14.18;44.59;95866.56;5054822;28;20430;-79
2022/03/28 05:51:29;;;;;;;29.17;17.80;;;;;;;14.42;43.91;95871.56;5036099;28;20442;-79
2022/03/28 05:53:56;;;;;;;19.83;15.17;;;;;;;14.77;43.84;95876.53;5053795;28;20482;-81
2022/03/28 05:56:24;;;;;;;22.90;15.73;;;;;;;15.19;42.50;95865.84;5054772;28;20438;-79
2022/03/28 05:58:51;;;;;;;24.73;17.07;;;;;;;15.81;41.15;95870.03;5054957;28;20442;-79
2022/03/28 06:01:18;;;;;;;28.30;18.40;;;;;;;16.22;39.97;95863.66;5054999;28;21017;-78
2022/03/28 06:03:45;;;;;;;24.90;18.00;;;;;;;16.21;39.24;95869.09;5054798;28;20957;-81
2022/03/28 06:06:12;;;;;;;40.73;17.97;;;;;;;16.27;39.28;95858.78;5054485;28;20445;-79
2022/03/28 06:08:39;;;;;;;31.40;17.70;;;;;;;16.17;39.64;95870.31;5054535;28;20445;-80
2022/03/28 06:11:06;;;;;;;26.88;19.30;;;;;;;16.03;39.89;95869.78;5053058;28;20439;-80
2022/03/28 06:13:35;;;;;;;25.33;17.63;;;;;;;16.06;39.38;95874.78;5054321;28;20250;-80
2022/03/28 06:16:03;;;;;;;22.33;16.60;;;;;;;16.10;39.57;95875.34;5053798;28;20928;-80
2022/03/28 06:18:31;;;;;;;27.13;18.20;;;;;;;16.37;39.72;95879.94;5035176;28;20449;-79
2022/03/28 06:20:57;;;;;;;30.67;19.90;;;;;;;16.28;39.38;95873.69;5053700;28;20446;-80
2022/03/28 06:23:24;;;;;;;26.83;18.40;;;;;;;16.14;39.90;95882.03;5019267;28;20450;-79
2022/03/28 06:25:51;;;;;;;28.10;18.67;;;;;;;16.07;39.61;95879.13;5054815;28;20433;-80
2022/03/28 06:28:18;;;;;;;32.03;16.50;;;;;;;16.13;39.95;95883.00;5035807;28;20460;-80
2022/03/28 06:30:46;;;;;;;24.13;16.03;;;;;;;16.24;40.48;95871.47;5054430;28;20446;-79
2022/03/28 06:33:13;;;;;;;23.70;16.10;;;;;;;16.22;40.38;95865.47;5054639;28;20990;-79
2022/03/28 06:35:41;;;;;;;20.53;15.87;;;;;;;16.47;40.04;95874.63;5054325;28;20429;-79
2022/03/28 06:38:08;;;;;;;22.87;16.43;;;;;;;16.30;39.66;95870.88;5054391;28;20438;-79
2022/03/28 06:40:35;;;;;;;25.03;16.83;;;;;;;16.23;40.11;95862.69;5055056;28;21040;-79
2022/03/28 06:53:27;;;;;;;27.57;15.17;;;;;;;18.06;38.21;95865.56;5034416;28;20797;-80
2022/03/28 06:55:54;;;;;;;18.37;13.87;;;;;;;18.30;37.65;95863.13;5034004;28;20457;-80
2022/03/28 06:58:21;;;;;;;27.83;16.30;;;;;;;18.64;36.53;95857.09;5033970;28;20438;-80
2022/03/28 07:00:48;;;;;;;23.17;16.20;;;;;;;18.32;36.93;95855.00;5034121;28;20450;-79
2022/03/28 07:03:15;;;;;;;25.47;16.20;;;;;;;18.16;37.86;95855.69;4999017;28;20975;-80
2022/03/28 07:05:42;;;;;;;21.93;16.03;;;;;;;18.22;37.63;95855.09;5033835;28;20830;-80
2022/03/28 07:08:09;;;;;;;23.47;13.07;;;;;;;18.03;37.93;95858.75;5034219;28;20474;-80
2022/03/28 07:10:37;;;;;;;20.87;12.10;;;;;;;18.29;37.98;95861.47;5034146;28;20439;-80
2022/03/28 07:13:04;;;;;;;19.97;14.70;;;;;;;18.57;37.08;95864.84;5033696;28;20487;-81
2022/03/28 07:15:31;;;;;;;20.70;14.20;;;;;;;18.85;36.44;95857.56;5033827;28;20545;-80
2022/03/28 07:18:02;;;;;;;39.73;15.23;;;;;;;19.04;36.78;95857.31;4999224;28;21059;-80
2022/03/28 07:20:31;;;;;;;28.87;14.63;;;;;;;19.09;36.06;95860.38;5033934;28;20522;-80
2022/03/28 07:22:59;;;;;;;22.53;17.63;;;;;;;18.99;36.58;95864.97;5033541;28;20918;-80
2022/03/28 07:25:27;;;;;;;87.33;66.23;;;;;;;18.05;37.67;95869.22;5033508;28;20441;-80
2022/03/28 07:27:56;;;;;;;119.47;69.87;;;;;;;18.26;38.47;95867.09;5034035;28;20496;-80
2022/03/28 07:30:35;;;;;;;83.90;62.23;;;;;;;18.45;37.72;95866.88;5051613;28;20773;-81
2022/03/28 07:33:03;;;;;;;26.07;16.80;;;;;;;18.71;37.17;95866.94;5028819;28;21015;-80
2022/03/28 07:35:31;;;;;;;23.53;13.90;;;;;;;18.61;37.35;95860.03;5053648;28;20456;-79
2022/03/28 07:37:58;;;;;;;23.73;15.10;;;;;;;18.27;38.24;95855.47;5053234;28;20438;-80
2022/03/28 07:40:25;;;;;;;20.73;13.67;;;;;;;18.32;37.83;95862.97;5035496;28;20442;-80
2022/03/28 07:42:53;;;;;;;17.53;13.13;;;;;;;18.33;38.44;95862.81;5035004;28;20449;-80
2022/03/28 07:48:43;;;;;;;29.90;15.97;;;;;;;18.31;38.54;95861.31;5051970;28;20870;-80
2022/03/28 07:51:10;;;;;;;22.63;13.47;;;;;;;18.21;38.82;95859.56;5053138;28;20481;-81
2022/03/28 07:53:38;;;;;;;25.60;13.90;;;;;;;17.97;38.97;95856.69;5018310;28;20477;-81
2022/03/28 07:56:05;;;;;;;22.20;12.40;;;;;;;17.80;39.47;95857.50;5052964;28;20442;-79
2022/03/28 07:58:32;;;;;;;22.27;13.10;;;;;;;17.91;39.76;95852.78;5053729;28;20445;-81
2022/03/28 08:00:59;;;;;;;20.80;13.00;;;;;;;18.16;39.02;95853.88;5053474;28;20460;-80
2022/03/28 08:03:26;;;;;;;16.63;12.17;;;;;;;18.02;39.16;95854.41;5053485;28;20580;-79
2022/03/28 08:05:55;;;;;;;22.57;12.33;;;;;;;17.93;40.04;95850.84;5053652;28;20437;-80
2022/03/28 08:08:22;;;;;;;19.47;12.60;;;;;;;18.08;39.60;95855.63;5053683;28;20449;-80
2022/03/28 08:10:49;;;;;;;14.87;10.40;;;;;;;18.20;39.31;95847.25;5053102;28;20452;-80
2022/03/28 08:13:16;;;;;;;18.67;12.00;;;;;;;18.01;39.37;95846.59;5052944;28;20832;-80
2022/03/28 08:15:42;;;;;;;18.63;10.53;;;;;;;18.10;39.63;95841.19;5053219;28;20493;-80
2022/03/28 08:18:10;;;;;;;13.83;10.50;;;;;;;17.98;39.75;95839.78;5054939;28;20453;-78
2022/03/28 08:20:37;;;;;;;18.10;11.87;;;;;;;18.25;39.04;95830.88;5057250;28;21017;-80
2022/03/28 08:23:05;;;;;;;19.67;13.00;;;;;;;18.47;38.90;95837.50;5056948;28;20445;-80
2022/03/28 08:25:32;;;;;;;14.10;10.80;;;;;;;18.13;39.51;95829.44;5055932;28;20529;-80
2022/03/28 08:27:59;;;;;;;18.13;11.63;;;;;;;17.97;39.35;95826.66;5055864;28;20446;-79
2022/03/28 08:30:26;;;;;;;20.03;12.17;;;;;;;18.16;40.13;95827.28;5056994;28;20799;-79
2022/03/28 08:32:55;;;;;;;21.17;11.30;;;;;;;18.27;39.88;95823.59;5056705;28;21015;-79
2022/03/28 08:35:22;;;;;;;12.87;10.57;;;;;;;18.11;39.79;95813.66;5057045;28;20445;-78
2022/03/28 08:37:49;;;;;;;19.20;11.70;;;;;;;18.02;40.26;95811.91;5056496;28;20792;-79
2022/03/28 08:40:18;;;;;;;12.67;11.30;;;;;;;18.25;40.09;95810.44;5056851;28;20520;-79
2022/03/28 08:42:46;;;;;;;18.40;10.90;;;;;;;18.02;40.08;95806.59;5056569;28;20506;-79
2022/03/28 08:45:14;;;;;;;16.67;11.70;;;;;;;17.95;40.62;95805.56;5056262;28;20963;-79
2022/03/28 08:47:44;;;;;;;22.17;16.13;;;;;;;17.91;41.40;95794.38;5056796;28;20449;-79
2022/03/28 08:50:11;;;;;;;22.73;14.00;;;;;;;18.12;39.79;95795.88;5056419;28;20445;-79
2022/03/28 08:52:40;;;;;;;14.83;12.33;;;;;;;18.09;39.88;95793.53;5056516;28;20800;-77
2022/03/28 08:55:08;;;;;;;14.80;10.87;;;;;;;18.22;40.75;95775.41;5056581;28;20484;-78
2022/03/28 08:57:37;;;;;;;28.73;11.43;;;;;;;18.03;41.23;95791.50;5056115;28;20917;-79
2022/03/28 09:00:05;;;;;;;20.40;11.63;;;;;;;17.91;40.34;95781.09;5021256;28;20515;-79
2022/03/28 09:09:34;;;;;;;16.20;11.37;;;;;;;17.27;42.12;95768.00;5022570;28;20461;-79
2022/03/28 09:12:08;;;;;;;26.00;12.10;;;;;;;17.19;42.62;95770.59;5036390;28;20419;-80
2022/03/28 09:14:40;;;;;;;20.43;12.60;;;;;;;17.31;42.78;95759.59;5035767;28;20466;-79
2022/03/28 09:17:10;;;;;;;20.63;11.60;;;;;;;17.03;43.02;95765.91;5001435;28;20443;-79
2022/03/28 09:19:50;;;;;;;15.30;11.37;;;;;;;17.23;43.66;95756.03;5040468;28;20426;-79
2022/03/28 09:22:19;;;;;;;21.87;11.27;;;;;;;17.07;43.29;95759.34;5020682;28;20987;-80
2022/03/28 09:24:46;;;;;;;16.07;11.07;;;;;;;17.07;43.59;95751.41;5056070;28;20527;-79
2022/03/28 09:27:15;;;;;;;38.40;12.10;;;;;;;16.66;43.98;95758.00;5037438;28;20432;-79
2022/03/28 09:29:58;;;;;;;20.43;11.57;;;;;;;17.06;44.08;95752.38;5055741;28;20457;-79
2022/03/28 09:32:27;;;;;;;16.07;11.03;;;;;;;17.25;43.21;95735.50;5055528;28;20445;-79
2022/03/28 09:35:09;;;;;;;16.00;12.23;;;;;;;17.50;43.00;95733.91;5055542;28;20492;-79
2022/03/28 09:38:04;;;;;;;20.97;13.47;;;;;;;17.87;42.29;95726.63;5055808;28;20437;-80
2022/03/28 09:40:34;;;;;;;20.27;11.77;;;;;;;18.22;41.70;95727.56;5033450;28;20446;-79
2022/03/28 09:43:03;;;;;;;15.30;11.60;;;;;;;18.07;41.55;95718.50;5033843;28;20556;-79
2022/03/28 09:48:54;;;;;;;12.97;10.60;;;;;;;18.23;40.75;95707.97;5032947;28;20964;-79
2022/03/28 09:51:22;;;;;;;15.63;11.07;;;;;;;18.39;40.34;95704.56;5033477;28;20458;-79
2022/03/28 09:53:50;;;;;;;16.50;11.70;;;;;;;18.39;40.10;95702.75;5033200;28;21146;-80
2022/03/28 09:56:17;;;;;;;18.33;11.43;;;;;;;18.38;40.32;95695.75;5033092;28;20446;-79
2022/03/28 09:58:47;;;;;;;15.53;11.27;;;;;;;18.58;40.25;95689.22;4984025;28;20508;-79
2022/03/28 10:01:17;;;;;;;34.43;11.93;;;;;;;18.79;40.36;95690.66;5032833;28;20450;-79
2022/03/28 10:03:46;;;;;;;17.90;12.40;;;;;;;18.92;39.61;95680.41;5032836;28;20450;-79
2022/03/28 10:06:16;;;;;;;27.33;12.00;;;;;;;19.00;40.10;95679.59;5032820;28;20438;-80
2022/03/28 10:08:44;;;;;;;17.40;11.77;;;;;;;18.92;40.03;95677.75;5032946;28;20955;-80
2022/03/28 10:11:12;;;;;;;14.20;10.00;;;;;;;18.96;39.37;95675.59;4999835;28;20458;-78
2022/03/28 10:13:39;;;;;;;19.03;10.93;;;;;;;18.80;39.60;95674.56;5032759;28;20871;-78
2022/03/28 10:16:07;;;;;;;16.80;9.83;;;;;;;18.61;39.67;95668.63;5042054;28;20976;-80
2022/03/28 10:18:36;;;;;;;16.40;10.23;;;;;;;18.40;40.55;95650.41;5055025;28;20469;-80
2022/03/28 10:21:06;;;;;;;13.77;9.43;;;;;;;18.40;40.35;95655.75;5054783;28;20442;-80
2022/03/28 10:23:42;;;;;;;26.27;11.43;;;;;;;17.91;40.93;95640.34;5055061;28;20442;-79
2022/03/28 10:26:10;;;;;;;14.63;9.83;;;;;;;18.05;41.88;95638.13;5054799;28;20441;-80
2022/03/28 10:28:38;;;;;;;19.10;11.57;;;;;;;18.23;40.85;95634.44;5054380;28;20448;-80
2022/03/28 10:31:16;;;;;;;18.93;13.13;;;;;;;18.14;41.08;95629.22;5054342;28;20917;-80
2022/03/28 10:33:51;;;;;;;22.27;11.00;;;;;;;18.09;41.24;95628.84;5054706;28;20795;-81
2022/03/28 10:36:24;;;;;;;17.93;10.87;;;;;;;18.16;40.70;95620.09;5035474;28;20453;-80
2022/03/28 10:38:53;;;;;;;12.60;9.50;;;;;;;18.25;40.47;95620.97;5042106;28;20446;-80
2022/03/28 10:41:21;;;;;;;17.10;10.70;;;;;;;18.14;40.59;95610.63;5053705;28;20457;-80
2022/03/28 10:43:48;;;;;;;15.27;10.57;;;;;;;18.13;41.05;95614.25;5054610;28;20434;-80
2022/03/28 10:46:17;;;;;;;18.00;9.17;;;;;;;18.11;40.80;95602.97;5054708;28;20808;-81
2022/03/28 10:48:47;;;;;;;20.07;11.47;;;;;;;18.09;40.69;95599.63;5054774;28;20465;-81
2022/03/28 10:51:16;;;;;;;19.80;10.43;;;;;;;18.22;40.73;95600.88;5053278;28;20453;-81
2022/03/28 10:53:46;;;;;;;22.37;11.17;;;;;;;18.19;40.79;95587.06;5053047;28;20953;-80
2022/03/28 10:56:17;;;;;;;18.97;11.23;;;;;;;18.27;40.45;95597.75;5052853;28;20957;-80
2022/03/28 10:58:46;;;;;;;14.40;9.73;;;;;;;18.34;40.22;95593.44;5033844;28;20429;-80
2022/03/28 11:01:33;;;;;;;21.13;12.10;;;;;;;18.49;40.17;95583.84;5034277;28;20521;-81
2022/03/28 11:04:02;;;;;;;15.83;9.17;;;;;;;18.39;40.59;95580.50;5052873;28;20457;-80
2022/03/28 11:07:00;;;;;;;21.40;11.20;;;;;;;18.36;40.38;95575.50;5052954;28;20441;-80
2022/03/28 11:09:44;;;;;;;24.73;10.30;;;;;;;18.37;39.54;95573.69;5052306;28;20551;-80
2022/03/28 11:12:15;;;;;;;13.63;9.73;;;;;;;18.36;40.24;95569.38;5052848;28;20535;-80
2022/03/28 11:14:45;;;;;;;16.90;9.53;;;;;;;18.34;40.85;95574.00;5052343;28;20481;-80
2022/03/28 11:17:20;;;;;;;22.60;9.43;;;;;;;18.35;40.44;95565.88;5052822;28;20983;-80
2022/03/28 11:20:03;;;;;;;12.40;8.80;;;;;;;18.37;39.50;95566.53;5052319;28;20810;-79
2022/03/28 11:22:45;;;;;;;18.83;9.27;;;;;;;18.44;39.57;95556.94;5052601;28;20511;-80
2022/03/28 11:25:46;;;;;;;24.10;10.07;;;;;;;18.47;38.75;95553.94;5052515;28;20507;-80
2022/03/28 11:28:21;;;;;;;19.47;10.23;;;;;;;18.54;38.88;95547.00;5052222;28;20849;-80
2022/03/28 11:30:58;;;;;;;19.40;11.40;;;;;;;18.37;38.95;95544.44;5052471;28;20453;-79
2022/03/28 11:33:47;;;;;;;18.13;9.53;;;;;;;18.43;38.94;95546.47;5052172;28;20503;-80
2022/03/28 11:36:15;;;;;;;15.40;8.17;;;;;;;18.48;39.05;95537.00;5051897;28;20449;-80
2022/03/28 11:38:46;;;;;;;19.60;8.90;;;;;;;18.44;38.90;95522.38;5053917;28;20507;-80
2022/03/28 11:41:14;;;;;;;20.10;10.17;;;;;;;18.55;39.05;95530.06;5053342;28;20508;-80
2022/03/28 11:43:44;;;;;;;10.23;8.60;;;;;;;18.63;39.30;95526.59;5053880;28;20442;-80
2022/03/28 11:46:14;;;;;;;23.10;8.70;;;;;;;18.75;39.02;95511.16;5053130;28;20454;-81
2022/03/28 11:48:52;;;;;;;19.93;8.80;;;;;;;18.84;39.09;95505.69;5051840;28;20449;-81
2022/03/28 11:51:19;;;;;;;17.43;9.60;;;;;;;18.90;38.60;95498.88;5052363;28;20437;-80
2022/03/28 11:53:46;;;;;;;12.57;8.90;;;;;;;18.92;39.19;95498.72;5052592;28;20442;-81